Time;durP1;ratioP1;P1;durP2;ratioP2;P2;SDS_P1;SDS_P2;PMS_P1;PMS_P2;Temp;Humidity;BMP_temperature;BMP_pressure;BME280_temperature;BME280_humidity;BME280_pressure;Samples;Min_cycle;Max_cycle;Signal;HPM_P1;HPM_P2
2022/10/25 00:01:23;;;;;;;354.00;123.87;;;12.80;99.90;;;;;;5133428;27;20226;-51
2022/10/25 00:03:51;;;;;;;342.10;137.20;;;12.80;99.90;;;;;;5132988;27;20272;-50
2022/10/25 00:06:19;;;;;;;481.73;255.90;;;12.80;99.90;;;;;;5133360;27;20647;-51
2022/10/25 00:08:47;;;;;;;482.43;173.80;;;12.80;99.90;;;;;;5132627;27;20752;-50
2022/10/25 00:11:20;;;;;;;539.57;217.07;;;12.80;99.90;;;;;;5133122;27;20217;-50
2022/10/25 00:13:49;;;;;;;566.97;242.87;;;12.80;99.90;;;;;;5132560;27;20195;-50
2022/10/25 00:16:21;;;;;;;470.23;207.53;;;12.80;99.90;;;;;;5132749;27;20293;-51
2022/10/25 00:18:50;;;;;;;312.33;142.00;;;12.70;99.90;;;;;;5130002;27;20225;-50
2022/10/25 00:21:18;;;;;;;584.30;266.27;;;12.80;99.90;;;;;;5132637;27;20234;-50
2022/10/25 00:23:47;;;;;;;467.37;183.70;;;12.70;99.90;;;;;;5132844;27;20253;-50
2022/10/25 00:26:15;;;;;;;447.17;157.20;;;12.70;99.90;;;;;;5152758;27;20325;-51
2022/10/25 00:28:43;;;;;;;492.77;196.50;;;12.70;99.90;;;;;;5138436;27;20326;-50
2022/10/25 00:31:13;;;;;;;294.83;102.80;;;12.70;99.90;;;;;;5153899;27;20296;-51
2022/10/25 00:33:44;;;;;;;315.23;146.73;;;12.70;99.90;;;;;;5151271;27;20750;-50
2022/10/25 00:36:15;;;;;;;1130.30;326.40;;;12.80;99.90;;;;;;5137818;27;20266;-50
2022/10/25 00:38:44;;;;;;;615.77;241.40;;;12.70;99.90;;;;;;5147463;27;20309;-51
2022/10/25 00:41:13;;;;;;;528.07;234.43;;;12.70;99.90;;;;;;5141759;27;20212;-50
2022/10/25 00:43:43;;;;;;;749.93;273.10;;;12.60;99.90;;;;;;5141673;27;20314;-51
2022/10/25 00:46:18;;;;;;;1090.40;367.53;;;12.60;99.90;;;;;;5152976;27;20612;-50
2022/10/25 00:48:53;;;;;;;511.40;193.83;;;12.50;99.90;;;;;;5152435;27;20637;-50
2022/10/25 00:51:25;;;;;;;584.70;209.17;;;12.50;99.90;;;;;;5153615;27;20210;-50
2022/10/25 00:53:54;;;;;;;378.03;103.00;;;12.50;99.90;;;;;;5138004;27;20214;-51
2022/10/25 00:56:25;;;;;;;473.53;185.70;;;12.50;99.90;;;;;;5150612;27;20209;-51
2022/10/25 00:58:57;;;;;;;205.27;82.93;;;12.50;99.90;;;;;;5151752;27;20941;-50
2022/10/25 01:01:25;;;;;;;283.90;102.83;;;12.40;99.90;;;;;;5143192;27;20198;-51
2022/10/25 01:03:57;;;;;;;466.60;157.13;;;12.40;99.90;;;;;;5152347;27;20725;-51
2022/10/25 01:06:33;;;;;;;508.90;187.13;;;12.40;99.90;;;;;;5153068;27;20289;-51
2022/10/25 01:09:02;;;;;;;605.43;334.37;;;12.40;99.90;;;;;;5152662;27;20293;-50
2022/10/25 01:11:31;;;;;;;373.63;139.37;;;12.40;99.90;;;;;;5124642;27;20343;-51
2022/10/25 01:13:59;;;;;;;437.63;193.73;;;12.40;99.90;;;;;;5152043;27;20198;-50
2022/10/25 01:16:34;;;;;;;502.30;205.37;;;12.40;99.90;;;;;;5152312;27;20213;-51
2022/10/25 01:19:21;;;;;;;280.97;121.03;;;12.40;99.90;;;;;;5145433;27;20746;-49
2022/10/25 01:21:53;;;;;;;492.20;194.57;;;12.40;99.90;;;;;;5126351;27;20190;-51
2022/10/25 01:24:52;;;;;;;725.73;271.83;;;12.40;99.90;;;;;;5142540;27;20309;-51
2022/10/25 01:27:52;;;;;;;331.47;123.87;;;12.40;99.90;;;;;;5122061;27;20313;-50
2022/10/25 01:30:22;;;;;;;241.27;89.47;;;12.40;99.90;;;;;;5117442;27;20206;-50
2022/10/25 01:33:12;;;;;;;452.23;194.63;;;12.40;99.90;;;;;;5150652;27;20302;-50
2022/10/25 01:35:50;;;;;;;380.97;185.53;;;12.50;99.90;;;;;;5127017;27;20674;-51
2022/10/25 01:38:27;;;;;;;509.73;176.37;;;12.50;99.90;;;;;;5151541;27;20236;-51
2022/10/25 01:41:06;;;;;;;615.37;355.10;;;12.50;99.90;;;;;;5152102;27;20293;-51
2022/10/25 01:43:43;;;;;;;393.93;155.30;;;12.50;99.90;;;;;;5151880;27;20586;-51
2022/10/25 01:46:21;;;;;;;566.27;257.00;;;12.50;99.90;;;;;;5151756;27;20288;-51
2022/10/25 01:48:57;;;;;;;362.47;136.90;;;12.50;99.90;;;;;;5151455;27;20244;-51
2022/10/25 01:51:27;;;;;;;621.67;255.70;;;12.50;99.90;;;;;;5152444;27;20202;-51
2022/10/25 01:53:55;;;;;;;504.83;235.57;;;12.40;99.90;;;;;;5148353;27;20207;-51
2022/10/25 01:56:27;;;;;;;262.83;79.87;;;12.40;99.90;;;;;;5132300;27;20296;-50
2022/10/25 01:59:18;;;;;;;439.20;185.60;;;12.40;99.90;;;;;;5150846;27;20229;-51
2022/10/25 02:02:00;;;;;;;488.47;212.97;;;12.40;99.90;;;;;;5150790;27;20592;-51
2022/10/25 02:04:40;;;;;;;792.00;235.67;;;12.50;99.90;;;;;;5151777;27;20320;-51
2022/10/25 02:07:11;;;;;;;811.57;392.93;;;12.50;99.90;;;;;;5143290;27;20588;-50
2022/10/25 02:09:48;;;;;;;717.13;332.67;;;12.50;99.90;;;;;;5150834;27;20216;-51
2022/10/25 02:12:24;;;;;;;756.53;328.30;;;12.50;99.90;;;;;;5150987;27;20691;-51
2022/10/25 02:15:04;;;;;;;1039.30;293.73;;;12.50;99.90;;;;;;5151164;27;20230;-51
2022/10/25 02:17:35;;;;;;;296.70;72.93;;;12.50;99.90;;;;;;5150480;27;20742;-51
2022/10/25 02:20:06;;;;;;;434.03;122.80;;;12.50;99.90;;;;;;5139518;27;20199;-51
2022/10/25 02:22:37;;;;;;;482.23;184.93;;;12.50;99.90;;;;;;5147356;27;20293;-51
2022/10/25 02:25:08;;;;;;;733.67;293.27;;;12.50;99.90;;;;;;5131891;27;20247;-49
2022/10/25 02:27:38;;;;;;;1060.33;338.37;;;12.50;99.90;;;;;;5133414;27;20652;-49
2022/10/25 02:30:08;;;;;;;475.47;133.63;;;12.40;99.90;;;;;;5149637;27;20199;-50
2022/10/25 02:32:36;;;;;;;522.63;278.30;;;12.50;99.90;;;;;;5149836;27;20657;-50
2022/10/25 02:35:11;;;;;;;598.47;222.27;;;12.40;99.90;;;;;;5149566;27;20285;-51
2022/10/25 02:37:39;;;;;;;1022.87;461.57;;;12.40;99.90;;;;;;5150665;27;20308;-51
2022/10/25 02:40:09;;;;;;;553.67;198.77;;;12.40;99.90;;;;;;5149033;27;20234;-50
2022/10/25 02:42:37;;;;;;;597.53;266.17;;;12.40;99.90;;;;;;5150694;27;20289;-51
2022/10/25 02:45:06;;;;;;;294.37;127.20;;;12.50;99.90;;;;;;5150638;27;20789;-51
2022/10/25 02:47:35;;;;;;;542.20;190.63;;;12.50;99.90;;;;;;5150287;27;20230;-50
2022/10/25 02:50:04;;;;;;;656.63;260.90;;;12.50;99.90;;;;;;5147384;27;20292;-50
2022/10/25 02:52:32;;;;;;;588.47;238.00;;;12.50;99.90;;;;;;5146531;27;20751;-51
2022/10/25 02:55:00;;;;;;;870.93;347.87;;;12.40;99.90;;;;;;5144371;27;20206;-51
2022/10/25 02:57:32;;;;;;;1030.60;338.50;;;12.40;99.90;;;;;;5146178;27;20265;-51
2022/10/25 03:00:01;;;;;;;727.63;327.23;;;12.40;99.90;;;;;;5148682;27;20297;-51
2022/10/25 03:02:29;;;;;;;855.53;312.20;;;12.40;99.90;;;;;;5145854;27;20582;-51
2022/10/25 03:04:57;;;;;;;570.80;179.90;;;12.40;99.90;;;;;;5141273;27;20232;-50
2022/10/25 03:07:26;;;;;;;562.93;194.53;;;12.40;99.90;;;;;;5149834;27;20313;-50
2022/10/25 03:09:54;;;;;;;485.27;186.53;;;12.50;99.90;;;;;;5150608;27;20750;-50
2022/10/25 03:12:22;;;;;;;549.47;169.10;;;12.50;99.90;;;;;;5150491;27;20293;-51
2022/10/25 03:14:50;;;;;;;698.20;272.80;;;12.50;99.90;;;;;;5143284;27;20200;-51
2022/10/25 03:17:18;;;;;;;1285.33;317.30;;;12.50;99.90;;;;;;5149568;27;20781;-51
2022/10/25 03:19:46;;;;;;;566.73;184.67;;;12.60;99.90;;;;;;5150884;27;20289;-49
2022/10/25 03:22:14;;;;;;;431.50;130.90;;;12.60;99.90;;;;;;5152886;27;20202;-51
2022/10/25 03:24:44;;;;;;;506.17;166.30;;;12.70;99.90;;;;;;5154776;27;20214;-51
2022/10/25 03:27:12;;;;;;;613.27;250.90;;;12.70;99.90;;;;;;5144343;27;20258;-51
2022/10/25 03:29:40;;;;;;;711.77;282.00;;;12.70;99.90;;;;;;5148745;27;20675;-50
2022/10/25 03:32:08;;;;;;;400.53;112.53;;;12.70;99.90;;;;;;5140578;27;20285;-51
2022/10/25 03:34:36;;;;;;;414.23;150.37;;;12.70;99.90;;;;;;5153480;27;20288;-51
2022/10/25 03:37:04;;;;;;;730.37;329.67;;;12.70;99.90;;;;;;5153782;27;20309;-51
2022/10/25 03:39:32;;;;;;;602.40;229.00;;;12.70;99.90;;;;;;5154815;27;20292;-50
2022/10/25 03:42:01;;;;;;;584.90;224.13;;;12.70;99.90;;;;;;5153548;27;20202;-51
2022/10/25 03:44:29;;;;;;;803.70;280.03;;;12.60;99.90;;;;;;5154433;27;20230;-51
2022/10/25 03:46:57;;;;;;;532.57;276.63;;;12.60;99.90;;;;;;5153149;27;20309;-50
2022/10/25 03:49:26;;;;;;;653.07;243.70;;;12.60;99.90;;;;;;5154524;27;20288;-50
2022/10/25 03:51:53;;;;;;;560.20;234.60;;;12.50;99.90;;;;;;5153516;27;20290;-51
2022/10/25 03:54:27;;;;;;;652.90;273.93;;;12.50;99.90;;;;;;5154361;27;20251;-51
2022/10/25 03:56:56;;;;;;;728.20;267.30;;;12.50;99.90;;;;;;5149505;27;20886;-50
2022/10/25 03:59:25;;;;;;;465.90;166.47;;;12.50;99.90;;;;;;5154335;27;20292;-50
2022/10/25 04:01:53;;;;;;;650.07;234.60;;;12.40;99.90;;;;;;5149793;27;20297;-51
2022/10/25 04:04:22;;;;;;;603.20;207.03;;;12.40;99.90;;;;;;5153045;27;20206;-51
2022/10/25 04:06:50;;;;;;;775.17;224.87;;;12.40;99.90;;;;;;5153057;27;20210;-51
2022/10/25 04:09:18;;;;;;;729.97;347.17;;;12.40;99.90;;;;;;5152507;27;20757;-51
2022/10/25 04:11:46;;;;;;;736.27;314.93;;;12.50;99.90;;;;;;5153344;27;20238;-50
2022/10/25 04:14:14;;;;;;;637.60;324.47;;;12.40;99.90;;;;;;5153725;27;20289;-51
2022/10/25 04:16:43;;;;;;;573.80;258.03;;;12.50;99.90;;;;;;5153154;27;20644;-51
2022/10/25 04:19:11;;;;;;;473.90;162.70;;;12.40;99.90;;;;;;5153275;27;20289;-51
2022/10/25 04:21:40;;;;;;;680.97;299.20;;;12.50;99.90;;;;;;5153830;27;20210;-51
2022/10/25 04:24:08;;;;;;;633.70;284.70;;;12.50;99.90;;;;;;5151723;27;20203;-51
2022/10/25 04:26:36;;;;;;;643.70;289.90;;;12.50;99.90;;;;;;5132392;27;20233;-51
2022/10/25 04:29:05;;;;;;;658.70;266.13;;;12.50;99.90;;;;;;5137029;27;20210;-51
2022/10/25 04:31:33;;;;;;;459.67;192.13;;;12.50;99.90;;;;;;5152739;27;20289;-51
2022/10/25 04:34:04;;;;;;;553.23;241.87;;;12.50;99.90;;;;;;5150344;27;20357;-49
2022/10/25 04:36:32;;;;;;;774.67;290.30;;;12.50;99.90;;;;;;5154163;27;20524;-50
2022/10/25 04:39:00;;;;;;;702.60;296.00;;;12.50;99.90;;;;;;5142427;27;20292;-51
2022/10/25 04:41:28;;;;;;;696.73;291.30;;;12.50;99.90;;;;;;5148015;27;20289;-50
2022/10/25 04:43:56;;;;;;;513.30;223.40;;;12.50;99.90;;;;;;5126167;27;20289;-50
2022/10/25 04:46:24;;;;;;;778.30;348.30;;;12.50;99.90;;;;;;5152511;27;20250;-50
2022/10/25 04:48:52;;;;;;;432.03;190.10;;;12.50;99.90;;;;;;5152397;27;20305;-51
2022/10/25 04:51:22;;;;;;;415.40;189.90;;;12.50;99.90;;;;;;5153413;27;20214;-51
2022/10/25 04:53:50;;;;;;;416.37;167.67;;;12.50;99.90;;;;;;5152529;27;20206;-50
2022/10/25 04:56:18;;;;;;;580.07;241.60;;;12.50;99.90;;;;;;5152663;27;20326;-51
2022/10/25 04:58:46;;;;;;;539.47;222.77;;;12.50;99.90;;;;;;5142442;27;20339;-50
2022/10/25 05:01:15;;;;;;;491.53;178.97;;;12.50;99.90;;;;;;5153074;27;20306;-51
2022/10/25 05:03:43;;;;;;;648.10;268.50;;;12.50;99.90;;;;;;5146583;27;20221;-50
2022/10/25 05:06:14;;;;;;;253.43;84.17;;;12.50;99.90;;;;;;5131976;27;20642;-51
2022/10/25 05:08:46;;;;;;;559.17;255.63;;;12.60;99.90;;;;;;5131156;27;20794;-49
2022/10/25 05:11:17;;;;;;;527.20;235.17;;;12.60;99.90;;;;;;5120542;27;20986;-49
2022/10/25 05:13:45;;;;;;;429.17;198.10;;;12.60;99.90;;;;;;5131925;27;20223;-50
2022/10/25 05:16:16;;;;;;;503.80;147.07;;;12.60;99.90;;;;;;5132063;27;20199;-51
2022/10/25 05:18:45;;;;;;;346.77;104.03;;;12.60;99.90;;;;;;5131539;27;20333;-49
2022/10/25 05:21:15;;;;;;;337.97;103.47;;;12.60;99.90;;;;;;5131895;27;20545;-51
2022/10/25 05:23:46;;;;;;;669.43;266.87;;;12.50;99.90;;;;;;5131387;27;20217;-50
2022/10/25 05:26:16;;;;;;;626.37;283.07;;;12.50;99.90;;;;;;5131550;27;20227;-51
2022/10/25 05:28:46;;;;;;;475.13;172.60;;;12.50;99.90;;;;;;5138780;27;20313;-50
2022/10/25 05:31:15;;;;;;;288.23;94.43;;;12.50;99.90;;;;;;5152184;27;20309;-50
2022/10/25 05:33:44;;;;;;;596.50;270.80;;;12.50;99.90;;;;;;5150510;27;21217;-51
2022/10/25 05:36:14;;;;;;;662.07;296.07;;;12.50;99.90;;;;;;5152752;27;20248;-51
2022/10/25 05:38:42;;;;;;;692.33;265.67;;;12.50;99.90;;;;;;5128746;27;20215;-50
2022/10/25 05:41:13;;;;;;;847.67;336.40;;;12.50;99.90;;;;;;5135219;27;20297;-51
2022/10/25 05:43:41;;;;;;;422.83;221.57;;;12.50;99.90;;;;;;5147171;27;20217;-51
2022/10/25 05:46:12;;;;;;;713.60;312.90;;;12.50;99.90;;;;;;5142041;27;20261;-51
2022/10/25 05:48:40;;;;;;;358.17;139.63;;;12.50;99.90;;;;;;5143043;27;20540;-49
2022/10/25 05:51:17;;;;;;;512.40;200.87;;;12.50;99.90;;;;;;5152140;27;20585;-51
2022/10/25 05:54:02;;;;;;;637.20;227.23;;;12.50;99.90;;;;;;5151036;27;20298;-51
2022/10/25 05:56:33;;;;;;;608.23;263.93;;;12.40;99.90;;;;;;5151371;27;20301;-49
2022/10/25 05:59:05;;;;;;;894.70;244.43;;;12.40;99.90;;;;;;5138659;27;20293;-51
2022/10/25 06:01:33;;;;;;;479.27;206.80;;;12.40;99.90;;;;;;5151042;27;20206;-50
2022/10/25 06:04:02;;;;;;;747.20;247.40;;;12.40;99.90;;;;;;5151197;27;20202;-50
2022/10/25 06:06:30;;;;;;;701.87;279.70;;;12.40;99.90;;;;;;5151717;27;20236;-50
2022/10/25 06:08:59;;;;;;;533.40;208.53;;;12.40;99.90;;;;;;5147471;27;20230;-51
2022/10/25 06:11:28;;;;;;;553.80;209.70;;;12.40;99.90;;;;;;5151885;27;20208;-51
2022/10/25 06:13:57;;;;;;;456.37;227.60;;;12.40;99.90;;;;;;5150359;27;20293;-49
2022/10/25 06:16:26;;;;;;;633.73;281.37;;;12.50;99.90;;;;;;5138770;27;20294;-51
2022/10/25 06:18:54;;;;;;;924.17;491.43;;;12.50;99.90;;;;;;5146620;27;20313;-51
2022/10/25 06:21:24;;;;;;;901.07;420.63;;;12.50;99.90;;;;;;5146026;27;20203;-51
2022/10/25 06:23:53;;;;;;;481.43;206.73;;;12.50;99.90;;;;;;5143835;27;20589;-51
2022/10/25 06:26:24;;;;;;;493.30;197.27;;;12.50;99.90;;;;;;5149531;27;20340;-50
2022/10/25 06:28:53;;;;;;;334.53;141.53;;;12.60;99.90;;;;;;5138423;27;20268;-50
2022/10/25 06:31:23;;;;;;;1034.40;475.53;;;12.60;99.90;;;;;;5151355;27;20360;-51
2022/10/25 06:33:52;;;;;;;475.07;250.57;;;12.60;99.90;;;;;;5149692;27;20289;-50
2022/10/25 06:36:21;;;;;;;733.90;300.33;;;12.70;99.90;;;;;;5151540;27;20321;-52
2022/10/25 06:38:50;;;;;;;628.83;341.50;;;12.70;99.90;;;;;;5146050;27;20301;-51
2022/10/25 06:41:20;;;;;;;578.23;245.33;;;12.70;99.90;;;;;;5151271;27;20293;-51
2022/10/25 06:43:48;;;;;;;813.20;307.97;;;12.70;99.90;;;;;;5126049;27;20946;-52
2022/10/25 06:46:21;;;;;;;634.30;284.53;;;12.70;99.90;;;;;;5134087;27;20229;-51
2022/10/25 06:48:52;;;;;;;773.30;337.03;;;12.80;99.90;;;;;;5141756;27;20228;-52
2022/10/25 06:51:21;;;;;;;716.63;357.50;;;12.80;99.90;;;;;;5150941;27;20667;-51
2022/10/25 06:53:54;;;;;;;780.33;362.83;;;12.80;99.90;;;;;;5150624;27;20233;-51
2022/10/25 06:56:22;;;;;;;456.47;144.57;;;12.80;99.90;;;;;;5150368;27;20301;-51
2022/10/25 06:58:50;;;;;;;856.70;349.97;;;12.80;99.90;;;;;;5146152;27;20246;-52
2022/10/25 07:01:20;;;;;;;869.67;382.50;;;12.70;99.90;;;;;;5139782;27;20212;-52
2022/10/25 07:03:52;;;;;;;529.37;207.20;;;12.70;99.90;;;;;;5141311;27;20230;-51
2022/10/25 07:06:23;;;;;;;785.33;276.30;;;12.80;99.90;;;;;;5150998;27;20210;-51
2022/10/25 07:08:53;;;;;;;659.57;254.77;;;12.70;99.90;;;;;;5148407;27;20707;-51
2022/10/25 07:11:23;;;;;;;670.03;356.13;;;12.80;99.90;;;;;;5134850;27;20286;-53
2022/10/25 07:13:51;;;;;;;888.50;427.10;;;12.80;99.90;;;;;;5144170;27;20292;-53
2022/10/25 07:16:20;;;;;;;802.80;293.97;;;12.80;99.90;;;;;;5136973;27;20681;-53
2022/10/25 07:18:50;;;;;;;664.27;334.63;;;12.80;99.90;;;;;;5149679;27;20301;-51
2022/10/25 07:21:20;;;;;;;862.17;359.90;;;12.90;99.90;;;;;;5150779;27;20581;-51
2022/10/25 07:23:50;;;;;;;948.13;406.83;;;12.90;99.90;;;;;;5146629;27;20758;-52
2022/10/25 07:26:20;;;;;;;763.37;419.50;;;12.90;99.90;;;;;;5148382;27;20210;-51
2022/10/25 07:28:50;;;;;;;791.77;285.60;;;12.90;99.90;;;;;;5137172;27;20313;-52
2022/10/25 07:31:21;;;;;;;597.77;220.43;;;12.90;99.90;;;;;;5135935;27;20285;-51
2022/10/25 07:33:51;;;;;;;679.20;236.83;;;13.00;99.90;;;;;;5147227;27;20205;-51
2022/10/25 07:36:20;;;;;;;788.23;327.00;;;13.10;99.90;;;;;;5125725;27;20207;-51
2022/10/25 07:38:48;;;;;;;575.00;247.70;;;13.10;99.90;;;;;;5120791;27;20310;-51
2022/10/25 07:41:16;;;;;;;825.20;362.63;;;13.20;99.90;;;;;;5129768;28;20213;-51
2022/10/25 07:43:44;;;;;;;1061.73;496.53;;;13.20;99.90;;;;;;5129565;28;20295;-51
2022/10/25 07:46:12;;;;;;;1062.53;495.93;;;13.20;99.90;;;;;;5129149;28;20302;-51
2022/10/25 07:48:41;;;;;;;768.93;305.47;;;13.30;99.90;;;;;;5128348;28;20223;-51
2022/10/25 07:51:12;;;;;;;1124.90;429.07;;;13.40;99.90;;;;;;5129381;27;20294;-52
2022/10/25 07:53:40;;;;;;;744.43;326.60;;;13.30;99.90;;;;;;5129418;28;20203;-49
2022/10/25 07:56:12;;;;;;;895.37;387.83;;;13.30;99.90;;;;;;5129592;28;20207;-51
2022/10/25 07:58:45;;;;;;;730.03;343.23;;;13.40;99.90;;;;;;5124468;28;20227;-51
2022/10/25 08:01:18;;;;;;;724.93;291.53;;;13.50;99.90;;;;;;5129608;28;20218;-51
2022/10/25 08:03:46;;;;;;;934.90;453.50;;;13.60;99.90;;;;;;5124476;28;20580;-50
2022/10/25 08:06:15;;;;;;;1361.90;611.10;;;13.60;99.90;;;;;;5129933;28;20301;-51
2022/10/25 08:08:44;;;;;;;1075.50;547.70;;;13.60;99.90;;;;;;5126734;27;20847;-50
2022/10/25 08:11:12;;;;;;;923.93;472.73;;;13.60;99.90;;;;;;5131160;27;20244;-51
2022/10/25 08:13:40;;;;;;;1109.63;442.10;;;13.70;99.90;;;;;;5132092;27;20199;-50
2022/10/25 08:16:09;;;;;;;918.13;447.73;;;13.80;99.90;;;;;;5133147;27;20290;-53
2022/10/25 08:18:37;;;;;;;1059.77;511.70;;;13.80;99.90;;;;;;5132281;27;20306;-50
2022/10/25 08:21:05;;;;;;;761.17;250.77;;;13.90;99.90;;;;;;5133028;27;20289;-51
2022/10/25 08:23:34;;;;;;;995.00;368.33;;;13.90;99.90;;;;;;5132506;27;20203;-50
2022/10/25 08:26:02;;;;;;;1200.90;530.07;;;14.00;99.90;;;;;;5132333;27;20295;-51
2022/10/25 08:28:31;;;;;;;1002.37;473.47;;;14.10;99.90;;;;;;5137320;27;20320;-52
2022/10/25 08:31:00;;;;;;;1214.73;420.47;;;14.00;99.90;;;;;;5153453;27;20198;-51
2022/10/25 08:33:29;;;;;;;1131.47;513.87;;;14.20;99.90;;;;;;5151568;27;20688;-51
2022/10/25 08:36:00;;;;;;;742.13;330.73;;;14.40;99.90;;;;;;5151205;27;20294;-51
2022/10/25 08:38:29;;;;;;;1133.83;426.27;;;14.40;99.90;;;;;;5153070;27;20214;-51
2022/10/25 08:41:05;;;;;;;853.57;337.03;;;14.30;99.90;;;;;;5142975;27;20210;-51
2022/10/25 08:43:52;;;;;;;954.17;465.40;;;14.30;99.90;;;;;;5152719;27;20288;-50
2022/10/25 08:46:25;;;;;;;909.87;390.37;;;14.30;99.90;;;;;;5153637;27;20275;-51
2022/10/25 08:49:02;;;;;;;1110.23;487.33;;;14.30;99.90;;;;;;5152343;27;20218;-51
2022/10/25 08:51:36;;;;;;;952.33;437.67;;;14.40;99.90;;;;;;5144402;27;20318;-51
2022/10/25 08:54:11;;;;;;;1436.37;671.97;;;14.50;99.90;;;;;;5152456;27;20288;-51
2022/10/25 08:56:41;;;;;;;1057.93;333.47;;;14.70;99.90;;;;;;5152762;27;20201;-51
2022/10/25 08:59:35;;;;;;;984.43;373.47;;;14.80;99.90;;;;;;5152735;27;20212;-51
2022/10/25 09:02:12;;;;;;;1419.13;495.98;;;15.00;99.90;;;;;;5147262;27;20208;-51
2022/10/25 09:04:41;;;;;;;1498.32;588.80;;;15.10;99.90;;;;;;5143782;27;20682;-51
2022/10/25 09:07:19;;;;;;;1195.97;587.73;;;15.10;99.90;;;;;;5147444;27;20686;-51
2022/10/25 09:09:53;;;;;;;1308.13;632.10;;;15.10;99.90;;;;;;5144653;27;20694;-51
2022/10/25 09:12:28;;;;;;;1278.50;626.42;;;15.00;99.90;;;;;;5149268;27;20199;-51
2022/10/25 09:15:03;;;;;;;1328.50;578.13;;;15.00;99.90;;;;;;5141344;27;20666;-52
2022/10/25 09:17:38;;;;;;;965.92;471.13;;;15.00;99.90;;;;;;5151905;27;20332;-51
2022/10/25 09:20:15;;;;;;;1233.25;609.85;;;15.00;99.90;;;;;;5152448;27;20229;-51
2022/10/25 09:22:46;;;;;;;1130.30;445.42;;;15.10;99.90;;;;;;5149754;27;20201;-51
2022/10/25 09:25:21;;;;;;;896.20;371.95;;;15.10;99.90;;;;;;5152584;27;20313;-51
2022/10/25 09:27:58;;;;;;;1163.57;548.85;;;15.20;99.90;;;;;;5137599;27;20232;-51
2022/10/25 09:30:28;;;;;;;1149.20;450.80;;;15.20;99.90;;;;;;5126971;27;20578;-51
2022/10/25 09:33:01;;;;;;;1449.82;614.28;;;15.10;99.90;;;;;;5152352;27;20666;-51
2022/10/25 09:35:32;;;;;;;1285.20;599.75;;;15.00;99.90;;;;;;5145975;27;20226;-51
2022/10/25 09:38:07;;;;;;;1264.93;561.42;;;15.00;99.90;;;;;;5137274;27;20301;-51
2022/10/25 09:40:44;;;;;;;926.23;409.30;;;15.00;99.90;;;;;;5125241;27;20680;-51
2022/10/25 09:43:21;;;;;;;1296.83;528.13;;;15.00;99.90;;;;;;5149258;27;20206;-50
2022/10/25 09:45:54;;;;;;;1178.95;455.35;;;15.00;99.90;;;;;;5126613;27;20621;-51
2022/10/25 09:48:25;;;;;;;1183.28;475.38;;;15.00;99.90;;;;;;5145639;27;20232;-51
2022/10/25 09:51:00;;;;;;;874.47;397.90;;;15.00;99.90;;;;;;5152591;27;20289;-51
2022/10/25 09:53:32;;;;;;;1529.13;585.77;;;15.00;99.90;;;;;;5151948;27;20229;-51
2022/10/25 09:56:04;;;;;;;1314.60;439.80;;;15.10;99.90;;;;;;5129950;27;20258;-51
2022/10/25 09:58:35;;;;;;;866.70;396.48;;;15.10;99.90;;;;;;5128631;27;20297;-51
2022/10/25 10:01:06;;;;;;;1292.47;563.65;;;15.10;99.90;;;;;;5134745;27;20298;-51
2022/10/25 10:03:36;;;;;;;1265.10;592.53;;;15.20;99.90;;;;;;5144522;27;20206;-51
2022/10/25 10:06:11;;;;;;;1302.55;535.58;;;15.30;99.90;;;;;;5137635;27;20285;-50
2022/10/25 10:08:50;;;;;;;1171.72;575.40;;;15.40;99.90;;;;;;5137902;27;20596;-50
2022/10/25 10:11:19;;;;;;;1478.55;561.13;;;15.40;99.90;;;;;;5146737;27;20221;-51
2022/10/25 10:13:53;;;;;;;971.67;400.63;;;15.40;99.90;;;;;;5146696;27;20653;-51
2022/10/25 10:16:25;;;;;;;1213.97;539.47;;;15.40;99.90;;;;;;5147298;27;20202;-51
2022/10/25 10:19:14;;;;;;;912.67;406.58;;;15.40;99.90;;;;;;5147696;27;20222;-51
2022/10/25 10:21:44;;;;;;;1296.43;563.58;;;15.50;99.90;;;;;;5142307;27;20203;-51
2022/10/25 10:24:18;;;;;;;1044.70;442.50;;;15.60;99.90;;;;;;5151065;27;20553;-51
2022/10/25 10:26:50;;;;;;;1368.70;676.20;;;15.50;99.90;;;;;;5149845;27;20746;-51
2022/10/25 10:29:22;;;;;;;1008.53;511.27;;;15.60;99.90;;;;;;5140959;27;20309;-51
2022/10/25 10:31:51;;;;;;;1038.88;421.05;;;15.70;99.90;;;;;;5136172;27;20543;-51
2022/10/25 10:34:24;;;;;;;1351.45;665.05;;;15.70;99.90;;;;;;5152595;27;20240;-51
2022/10/25 10:37:03;;;;;;;1028.90;500.25;;;15.80;99.90;;;;;;5149752;27;20217;-51
2022/10/25 10:39:32;;;;;;;1347.60;679.03;;;15.90;99.90;;;;;;5126133;27;20208;-51
2022/10/25 10:42:02;;;;;;;1555.97;528.85;;;15.80;99.90;;;;;;5151365;27;20224;-51
2022/10/25 10:44:34;;;;;;;1125.38;504.42;;;15.80;99.90;;;;;;5152133;27;20212;-51
2022/10/25 10:47:09;;;;;;;1391.57;569.80;;;15.80;99.90;;;;;;5151320;27;20222;-51
2022/10/25 10:49:42;;;;;;;1336.13;540.47;;;15.70;99.90;;;;;;5144063;27;20225;-51
2022/10/25 10:52:29;;;;;;;978.88;454.63;;;15.80;99.90;;;;;;5151887;27;20289;-50
2022/10/25 10:54:58;;;;;;;1147.00;533.08;;;16.00;99.90;;;;;;5125641;27;20748;-50
2022/10/25 10:57:31;;;;;;;1297.10;604.00;;;16.10;99.90;;;;;;5142547;27;20223;-51
2022/10/25 11:00:01;;;;;;;1395.10;604.85;;;16.30;99.90;;;;;;5150644;27;20224;-51
2022/10/25 11:02:37;;;;;;;1097.70;507.13;;;16.40;99.90;;;;;;5150280;27;20202;-51
2022/10/25 11:05:20;;;;;;;1142.32;559.22;;;16.30;99.90;;;;;;5142642;27;20203;-51
2022/10/25 11:07:55;;;;;;;1572.60;636.42;;;16.30;99.90;;;;;;5145418;27;20218;-51
2022/10/25 11:10:26;;;;;;;1185.47;657.17;;;16.50;99.90;;;;;;5146382;27;20316;-51
2022/10/25 11:13:12;;;;;;;1386.55;525.25;;;16.50;99.90;;;;;;5148037;27;20281;-51
2022/10/25 11:16:35;;;;;;;1999.90;772.83;;;16.70;99.90;;;;;;5139910;27;20237;-51
2022/10/25 11:19:24;;;;;;;1284.45;554.63;;;16.70;99.90;;;;;;5130014;27;20650;-50
2022/10/25 11:22:15;;;;;;;1506.15;625.55;;;16.80;99.90;;;;;;5129296;27;20580;-50
2022/10/25 11:24:52;;;;;;;1390.18;578.97;;;16.80;99.90;;;;;;5111615;28;20213;-51
2022/10/25 11:27:33;;;;;;;1174.40;541.63;;;16.80;99.90;;;;;;5123903;28;20596;-52
2022/10/25 11:30:08;;;;;;;1357.80;545.72;;;16.70;99.90;;;;;;5118939;27;20271;-51
2022/10/25 11:33:09;;;;;;;1266.40;653.17;;;16.80;99.90;;;;;;5125810;27;20209;-51
2022/10/25 11:35:58;;;;;;;1324.65;510.85;;;16.70;99.90;;;;;;5125160;27;20655;-50
2022/10/25 11:38:40;;;;;;;1202.60;673.17;;;16.70;99.90;;;;;;5130051;27;20719;-51
2022/10/25 11:41:21;;;;;;;1052.93;526.92;;;16.70;99.90;;;;;;5130760;27;20211;-51
2022/10/25 11:44:07;;;;;;;1221.10;609.97;;;16.70;99.90;;;;;;5133172;27;20314;-51
2022/10/25 11:46:42;;;;;;;1016.25;549.72;;;16.70;99.90;;;;;;5134110;27;20249;-50
2022/10/25 11:49:29;;;;;;;1071.65;513.88;;;16.70;99.90;;;;;;5134659;27;20220;-50
2022/10/25 11:52:25;;;;;;;1180.07;550.97;;;16.60;99.90;;;;;;5134417;27;20209;-51
2022/10/25 11:55:03;;;;;;;1292.63;571.60;;;16.60;99.90;;;;;;5135011;27;20282;-50
2022/10/25 11:57:44;;;;;;;1528.80;683.58;;;16.50;99.90;;;;;;5134019;27;20237;-50
2022/10/25 12:00:15;;;;;;;1256.07;658.65;;;16.50;99.90;;;;;;5133104;27;20278;-50
2022/10/25 12:03:16;;;;;;;1408.68;559.65;;;16.50;99.90;;;;;;5132627;27;20253;-50
2022/10/25 12:05:54;;;;;;;1155.25;575.05;;;16.60;99.90;;;;;;5125444;27;20244;-50
2022/10/25 12:08:36;;;;;;;1051.55;446.08;;;16.60;99.90;;;;;;5139408;27;20261;-50
2022/10/25 12:11:07;;;;;;;1181.68;640.55;;;16.70;99.90;;;;;;5152897;27;20205;-48
2022/10/25 12:13:39;;;;;;;1218.28;611.72;;;16.80;99.90;;;;;;5137607;27;20302;-50
2022/10/25 12:16:12;;;;;;;1316.25;713.53;;;16.80;99.90;;;;;;5147354;27;20229;-49
2022/10/25 12:18:44;;;;;;;1200.03;606.03;;;16.80;99.90;;;;;;5126615;27;20222;-51
2022/10/25 12:21:19;;;;;;;1205.38;623.35;;;16.90;99.90;;;;;;5153613;27;20301;-49
2022/10/25 12:23:50;;;;;;;1186.18;640.05;;;16.90;99.90;;;;;;5153534;27;20197;-50
2022/10/25 12:26:25;;;;;;;1760.43;796.83;;;17.00;99.90;;;;;;5148231;27;20220;-50
2022/10/25 12:28:54;;;;;;;1296.18;635.97;;;16.90;99.90;;;;;;5140705;27;20226;-50
2022/10/25 12:31:25;;;;;;;1368.97;616.75;;;17.00;99.90;;;;;;5146720;27;20206;-50